sensor_id;sensor_type;location;lat;lon;timestamp;pressure;altitude;pressure_sealevel;temperature;humidity
63339;BME280;70568;51.378;-1.342;2024-01-27T00:01:53;102023.26;;;1.29;29.26
63339;BME280;70568;51.378;-1.342;2024-01-27T00:04:20;102026.00;;;1.67;28.27
63339;BME280;70568;51.378;-1.342;2024-01-27T00:06:47;102024.63;;;3.28;28.72
63339;BME280;70568;51.378;-1.342;2024-01-27T00:09:13;102022.00;;;3.04;28.57
63339;BME280;70568;51.378;-1.342;2024-01-27T00:11:40;102023.21;;;2.54;28.66
63339;BME280;70568;51.378;-1.342;2024-01-27T00:14:06;102021.42;;;2.12;28.08
63339;BME280;70568;51.378;-1.342;2024-01-27T00:16:33;102014.95;;;1.94;28.86
63339;BME280;70568;51.378;-1.342;2024-01-27T00:19:00;102011.03;;;3.52;27.95
63339;BME280;70568;51.378;-1.342;2024-01-27T00:21:27;102017.48;;;3.88;28.47
63339;BME280;70568;51.378;-1.342;2024-01-27T00:23:53;102021.17;;;4.89;28.41
63339;BME280;70568;51.378;-1.342;2024-01-27T00:26:20;102026.03;;;2.74;28.91
63339;BME280;70568;51.378;-1.342;2024-01-27T00:28:47;102020.88;;;2.71;29.19
63339;BME280;70568;51.378;-1.342;2024-01-27T00:31:14;102023.53;;;1.83;29.52
63339;BME280;70568;51.378;-1.342;2024-01-27T00:33:40;102023.77;;;2.22;29.02
63339;BME280;70568;51.378;-1.342;2024-01-27T00:36:08;102024.36;;;3.10;28.54
63339;BME280;70568;51.378;-1.342;2024-01-27T00:38:35;102018.09;;;1.81;29.00
63339;BME280;70568;51.378;-1.342;2024-01-27T00:41:01;102012.47;;;4.67;27.76
63339;BME280;70568;51.378;-1.342;2024-01-27T00:43:28;102000.06;;;3.02;28.72
63339;BME280;70568;51.378;-1.342;2024-01-27T00:45:56;101993.24;;;1.92;29.49
63339;BME280;70568;51.378;-1.342;2024-01-27T00:48:23;101991.62;;;1.87;29.01
63339;BME280;70568;51.378;-1.342;2024-01-27T00:50:49;101993.61;;;2.75;28.57
63339;BME280;70568;51.378;-1.342;2024-01-27T00:53:15;101991.64;;;-0.25;29.43
63339;BME280;70568;51.378;-1.342;2024-01-27T00:55:42;101990.10;;;2.38;28.62
63339;BME280;70568;51.378;-1.342;2024-01-27T00:58:09;101989.55;;;3.58;27.55
63339;BME280;70568;51.378;-1.342;2024-01-27T01:00:36;101987.77;;;3.31;27.16
63339;BME280;70568;51.378;-1.342;2024-01-27T01:03:03;101988.09;;;4.75;27.02
63339;BME280;70568;51.378;-1.342;2024-01-27T01:05:29;101984.76;;;4.04;27.62
63339;BME280;70568;51.378;-1.342;2024-01-27T01:07:57;101975.52;;;3.35;28.70
63339;BME280;70568;51.378;-1.342;2024-01-27T01:10:24;101975.61;;;3.59;28.55
63339;BME280;70568;51.378;-1.342;2024-01-27T01:12:51;101974.61;;;1.02;29.38
63339;BME280;70568;51.378;-1.342;2024-01-27T01:15:17;101970.88;;;1.69;28.53
63339;BME280;70568;51.378;-1.342;2024-01-27T01:17:44;101971.91;;;2.49;28.08
63339;BME280;70568;51.378;-1.342;2024-01-27T01:20:11;101970.24;;;3.69;27.54
63339;BME280;70568;51.378;-1.342;2024-01-27T01:22:38;101970.08;;;3.81;27.63
63339;BME280;70568;51.378;-1.342;2024-01-27T01:25:05;101972.62;;;4.05;27.99
63339;BME280;70568;51.378;-1.342;2024-01-27T01:27:32;101975.00;;;4.49;28.30
63339;BME280;70568;51.378;-1.342;2024-01-27T01:29:59;101972.99;;;3.86;29.23
63339;BME280;70568;51.378;-1.342;2024-01-27T01:32:25;101976.08;;;2.09;29.97
63339;BME280;70568;51.378;-1.342;2024-01-27T01:34:52;101973.01;;;1.55;30.58
63339;BME280;70568;51.378;-1.342;2024-01-27T01:37:18;101966.97;;;2.19;30.20
63339;BME280;70568;51.378;-1.342;2024-01-27T01:39:45;101962.74;;;1.21;29.55
63339;BME280;70568;51.378;-1.342;2024-01-27T01:42:12;101949.30;;;2.77;28.61
63339;BME280;70568;51.378;-1.342;2024-01-27T01:44:39;101945.31;;;3.21;28.31
63339;BME280;70568;51.378;-1.342;2024-01-27T01:47:07;101955.55;;;4.18;27.61
63339;BME280;70568;51.378;-1.342;2024-01-27T01:49:35;101962.12;;;2.71;28.32
63339;BME280;70568;51.378;-1.342;2024-01-27T01:52:02;101965.17;;;3.39;28.68
63339;BME280;70568;51.378;-1.342;2024-01-27T01:54:29;101968.33;;;4.54;28.73
63339;BME280;70568;51.378;-1.342;2024-01-27T01:56:58;101966.14;;;3.62;29.12
63339;BME280;70568;51.378;-1.342;2024-01-27T01:59:25;101963.65;;;3.77;29.22
63339;BME280;70568;51.378;-1.342;2024-01-27T02:01:51;101961.64;;;3.65;29.43
63339;BME280;70568;51.378;-1.342;2024-01-27T02:04:18;101958.78;;;2.22;29.18
63339;BME280;70568;51.378;-1.342;2024-01-27T02:06:45;101953.25;;;1.81;29.41
63339;BME280;70568;51.378;-1.342;2024-01-27T02:09:12;101953.10;;;2.75;28.77
63339;BME280;70568;51.378;-1.342;2024-01-27T02:11:39;101963.17;;;4.94;28.18
63339;BME280;70568;51.378;-1.342;2024-01-27T02:14:06;101968.49;;;3.20;29.17
63339;BME280;70568;51.378;-1.342;2024-01-27T02:16:33;101980.64;;;3.66;30.05
63339;BME280;70568;51.378;-1.342;2024-01-27T02:19:00;101983.83;;;2.59;30.39
63339;BME280;70568;51.378;-1.342;2024-01-27T02:21:26;101984.95;;;2.47;31.47
63339;BME280;70568;51.378;-1.342;2024-01-27T02:23:53;102006.53;;;2.43;31.71
63339;BME280;70568;51.378;-1.342;2024-01-27T02:26:19;102003.92;;;1.88;33.01
63339;BME280;70568;51.378;-1.342;2024-01-27T02:28:46;101997.56;;;0.76;33.39
63339;BME280;70568;51.378;-1.342;2024-01-27T02:31:13;101985.65;;;1.41;32.53
63339;BME280;70568;51.378;-1.342;2024-01-27T02:33:39;101972.70;;;1.13;32.39
63339;BME280;70568;51.378;-1.342;2024-01-27T02:36:06;101981.82;;;2.39;31.33
63339;BME280;70568;51.378;-1.342;2024-01-27T02:38:32;101973.39;;;3.13;32.03
63339;BME280;70568;51.378;-1.342;2024-01-27T02:40:59;101969.22;;;1.85;31.64
63339;BME280;70568;51.378;-1.342;2024-01-27T02:43:26;101968.84;;;0.87;30.71
63339;BME280;70568;51.378;-1.342;2024-01-27T02:45:52;101965.49;;;2.46;30.12
63339;BME280;70568;51.378;-1.342;2024-01-27T02:48:19;101962.69;;;1.35;30.87
63339;BME280;70568;51.378;-1.342;2024-01-27T02:50:46;101959.67;;;2.03;29.53
63339;BME280;70568;51.378;-1.342;2024-01-27T02:53:12;101965.40;;;4.05;28.61
63339;BME280;70568;51.378;-1.342;2024-01-27T02:55:39;101967.75;;;3.61;29.19
63339;BME280;70568;51.378;-1.342;2024-01-27T02:58:05;101973.42;;;3.47;29.14
63339;BME280;70568;51.378;-1.342;2024-01-27T03:00:32;101978.60;;;0.18;31.24
63339;BME280;70568;51.378;-1.342;2024-01-27T03:02:59;101978.21;;;1.16;30.97
63339;BME280;70568;51.378;-1.342;2024-01-27T03:05:25;101987.59;;;1.60;30.11
63339;BME280;70568;51.378;-1.342;2024-01-27T03:07:52;101985.97;;;3.23;28.68
63339;BME280;70568;51.378;-1.342;2024-01-27T03:10:19;101982.25;;;2.41;29.19
63339;BME280;70568;51.378;-1.342;2024-01-27T03:12:45;101973.61;;;2.06;29.94
63339;BME280;70568;51.378;-1.342;2024-01-27T03:15:12;101971.00;;;1.68;29.06
63339;BME280;70568;51.378;-1.342;2024-01-27T03:17:39;101963.66;;;0.91;30.40
63339;BME280;70568;51.378;-1.342;2024-01-27T03:20:07;101959.46;;;1.70;29.82
63339;BME280;70568;51.378;-1.342;2024-01-27T03:22:34;101955.35;;;1.71;29.10
63339;BME280;70568;51.378;-1.342;2024-01-27T03:25:01;101952.98;;;0.78;29.63
63339;BME280;70568;51.378;-1.342;2024-01-27T03:27:28;101957.23;;;2.00;28.96
63339;BME280;70568;51.378;-1.342;2024-01-27T03:29:59;101956.58;;;1.60;29.46
63339;BME280;70568;51.378;-1.342;2024-01-27T03:32:26;101956.04;;;1.72;28.25
63339;BME280;70568;51.378;-1.342;2024-01-27T03:34:53;101956.80;;;3.13;27.98
63339;BME280;70568;51.378;-1.342;2024-01-27T03:37:21;101951.77;;;1.06;29.46
63339;BME280;70568;51.378;-1.342;2024-01-27T03:39:48;101946.55;;;2.05;29.11
63339;BME280;70568;51.378;-1.342;2024-01-27T03:42:15;101946.93;;;1.89;28.74
63339;BME280;70568;51.378;-1.342;2024-01-27T03:44:42;101946.57;;;3.24;28.13
63339;BME280;70568;51.378;-1.342;2024-01-27T03:47:09;101944.67;;;1.02;28.18
63339;BME280;70568;51.378;-1.342;2024-01-27T03:49:36;101952.61;;;1.85;28.81
63339;BME280;70568;51.378;-1.342;2024-01-27T03:52:04;101945.27;;;1.18;28.64
63339;BME280;70568;51.378;-1.342;2024-01-27T03:54:30;101941.83;;;-0.01;30.26
63339;BME280;70568;51.378;-1.342;2024-01-27T03:56:57;101946.12;;;1.32;29.95
63339;BME280;70568;51.378;-1.342;2024-01-27T03:59:24;101948.28;;;-0.26;30.52
63339;BME280;70568;51.378;-1.342;2024-01-27T04:01:50;101945.20;;;0.36;30.66
63339;BME280;70568;51.378;-1.342;2024-01-27T04:04:17;101950.68;;;0.47;30.27
63339;BME280;70568;51.378;-1.342;2024-01-27T04:06:44;101943.08;;;0.98;29.32
63339;BME280;70568;51.378;-1.342;2024-01-27T04:09:11;101941.70;;;4.70;27.04
63339;BME280;70568;51.378;-1.342;2024-01-27T04:11:38;101936.32;;;4.47;27.72
63339;BME280;70568;51.378;-1.342;2024-01-27T04:14:06;101930.75;;;3.39;28.38
63339;BME280;70568;51.378;-1.342;2024-01-27T04:16:33;101931.85;;;0.72;29.76
63339;BME280;70568;51.378;-1.342;2024-01-27T04:18:59;101930.67;;;2.72;30.13
63339;BME280;70568;51.378;-1.342;2024-01-27T04:21:26;101937.95;;;0.72;30.02
63339;BME280;70568;51.378;-1.342;2024-01-27T04:23:53;101936.49;;;0.73;30.77
63339;BME280;70568;51.378;-1.342;2024-01-27T04:26:20;101936.93;;;-0.02;30.43
63339;BME280;70568;51.378;-1.342;2024-01-27T04:28:47;101936.58;;;1.94;29.15
63339;BME280;70568;51.378;-1.342;2024-01-27T04:31:14;101939.11;;;0.63;30.51
63339;BME280;70568;51.378;-1.342;2024-01-27T04:33:41;101939.06;;;0.02;29.92
63339;BME280;70568;51.378;-1.342;2024-01-27T04:36:08;101945.57;;;-0.44;30.17
63339;BME280;70568;51.378;-1.342;2024-01-27T04:38:34;101944.58;;;1.48;29.11
63339;BME280;70568;51.378;-1.342;2024-01-27T04:41:01;101939.09;;;2.64;27.48
63339;BME280;70568;51.378;-1.342;2024-01-27T04:43:28;101936.00;;;1.26;28.13
63339;BME280;70568;51.378;-1.342;2024-01-27T04:45:55;101941.10;;;1.36;29.13
63339;BME280;70568;51.378;-1.342;2024-01-27T04:48:22;101943.86;;;1.11;29.11
63339;BME280;70568;51.378;-1.342;2024-01-27T04:50:49;101941.48;;;-0.11;29.79
63339;BME280;70568;51.378;-1.342;2024-01-27T04:53:16;101936.32;;;-0.05;29.89
63339;BME280;70568;51.378;-1.342;2024-01-27T04:55:42;101938.32;;;1.08;28.23
63339;BME280;70568;51.378;-1.342;2024-01-27T04:58:09;101933.34;;;0.06;29.59
63339;BME280;70568;51.378;-1.342;2024-01-27T05:00:36;101920.57;;;0.60;29.35
63339;BME280;70568;51.378;-1.342;2024-01-27T05:03:02;101920.11;;;1.59;27.56
63339;BME280;70568;51.378;-1.342;2024-01-27T05:05:29;101922.11;;;1.91;27.35
63339;BME280;70568;51.378;-1.342;2024-01-27T05:07:56;101925.11;;;1.33;28.57
63339;BME280;70568;51.378;-1.342;2024-01-27T05:10:23;101917.75;;;1.21;29.38
63339;BME280;70568;51.378;-1.342;2024-01-27T05:12:49;101922.19;;;-1.59;30.45
63339;BME280;70568;51.378;-1.342;2024-01-27T05:15:16;101927.73;;;-0.01;30.04
63339;BME280;70568;51.378;-1.342;2024-01-27T05:17:42;101915.86;;;2.77;27.81
63339;BME280;70568;51.378;-1.342;2024-01-27T05:20:09;101920.47;;;0.03;30.01
63339;BME280;70568;51.378;-1.342;2024-01-27T05:22:36;101906.13;;;-0.55;30.78
63339;BME280;70568;51.378;-1.342;2024-01-27T05:25:03;101877.65;;;1.02;30.11
63339;BME280;70568;51.378;-1.342;2024-01-27T05:27:30;101868.23;;;-0.15;30.81
63339;BME280;70568;51.378;-1.342;2024-01-27T05:29:57;101867.00;;;-0.47;30.84
63339;BME280;70568;51.378;-1.342;2024-01-27T05:32:24;101873.52;;;0.72;29.30
63339;BME280;70568;51.378;-1.342;2024-01-27T05:34:50;101878.25;;;2.23;28.78
63339;BME280;70568;51.378;-1.342;2024-01-27T05:37:17;101895.31;;;2.14;29.65
63339;BME280;70568;51.378;-1.342;2024-01-27T05:39:43;101908.98;;;2.89;28.40
63339;BME280;70568;51.378;-1.342;2024-01-27T05:42:10;101910.90;;;2.11;28.67
63339;BME280;70568;51.378;-1.342;2024-01-27T05:44:37;101905.39;;;3.98;29.04
63339;BME280;70568;51.378;-1.342;2024-01-27T05:47:03;101909.57;;;2.59;30.47
63339;BME280;70568;51.378;-1.342;2024-01-27T05:49:30;101915.20;;;2.30;31.34
63339;BME280;70568;51.378;-1.342;2024-01-27T05:51:57;101911.10;;;0.10;33.45
63339;BME280;70568;51.378;-1.342;2024-01-27T05:54:24;101908.65;;;0.65;31.73
63339;BME280;70568;51.378;-1.342;2024-01-27T05:56:50;101905.92;;;2.76;30.51
63339;BME280;70568;51.378;-1.342;2024-01-27T05:59:17;101900.61;;;2.25;29.86
63339;BME280;70568;51.378;-1.342;2024-01-27T06:01:43;101899.21;;;1.90;31.13
63339;BME280;70568;51.378;-1.342;2024-01-27T06:04:10;101902.63;;;1.00;32.23
63339;BME280;70568;51.378;-1.342;2024-01-27T06:06:37;101897.69;;;3.06;30.88
63339;BME280;70568;51.378;-1.342;2024-01-27T06:09:04;101891.78;;;1.61;31.00
63339;BME280;70568;51.378;-1.342;2024-01-27T06:11:30;101889.89;;;1.71;31.84
63339;BME280;70568;51.378;-1.342;2024-01-27T06:13:58;101880.78;;;1.81;31.64
63339;BME280;70568;51.378;-1.342;2024-01-27T06:16:25;101877.57;;;1.32;31.40
63339;BME280;70568;51.378;-1.342;2024-01-27T06:18:51;101881.88;;;1.25;31.66
63339;BME280;70568;51.378;-1.342;2024-01-27T06:21:18;101883.54;;;1.91;31.32
63339;BME280;70568;51.378;-1.342;2024-01-27T06:23:45;101879.58;;;1.19;31.37
63339;BME280;70568;51.378;-1.342;2024-01-27T06:26:13;101878.35;;;2.78;30.18
63339;BME280;70568;51.378;-1.342;2024-01-27T06:28:40;101868.80;;;2.32;30.64
63339;BME280;70568;51.378;-1.342;2024-01-27T06:31:06;101869.86;;;3.44;30.55
63339;BME280;70568;51.378;-1.342;2024-01-27T06:33:34;101880.90;;;1.29;31.08
63339;BME280;70568;51.378;-1.342;2024-01-27T06:36:01;101890.54;;;2.91;29.81
63339;BME280;70568;51.378;-1.342;2024-01-27T06:38:28;101892.92;;;5.45;28.79
63339;BME280;70568;51.378;-1.342;2024-01-27T06:40:56;101885.29;;;1.65;30.57
63339;BME280;70568;51.378;-1.342;2024-01-27T06:43:23;101880.42;;;1.73;31.03
63339;BME280;70568;51.378;-1.342;2024-01-27T06:45:49;101883.60;;;2.57;30.22
63339;BME280;70568;51.378;-1.342;2024-01-27T06:48:16;101883.87;;;0.57;31.24
63339;BME280;70568;51.378;-1.342;2024-01-27T06:50:42;101875.62;;;2.36;29.85
63339;BME280;70568;51.378;-1.342;2024-01-27T06:53:09;101867.75;;;2.18;29.93
63339;BME280;70568;51.378;-1.342;2024-01-27T06:55:36;101883.82;;;3.41;28.44
63339;BME280;70568;51.378;-1.342;2024-01-27T06:58:03;101893.82;;;3.14;29.67
63339;BME280;70568;51.378;-1.342;2024-01-27T07:00:29;101903.10;;;2.52;29.39
63339;BME280;70568;51.378;-1.342;2024-01-27T07:02:58;101903.20;;;1.79;30.00
63339;BME280;70568;51.378;-1.342;2024-01-27T07:05:25;101889.47;;;1.56;30.82
63339;BME280;70568;51.378;-1.342;2024-01-27T07:07:51;101874.92;;;0.96;30.77
63339;BME280;70568;51.378;-1.342;2024-01-27T07:10:17;101874.36;;;0.88;31.07
63339;BME280;70568;51.378;-1.342;2024-01-27T07:12:44;101881.27;;;0.65;31.66
63339;BME280;70568;51.378;-1.342;2024-01-27T07:15:11;101881.89;;;1.22;30.73
63339;BME280;70568;51.378;-1.342;2024-01-27T07:17:37;101881.15;;;1.12;31.30
63339;BME280;70568;51.378;-1.342;2024-01-27T07:20:05;101876.92;;;1.58;31.34
63339;BME280;70568;51.378;-1.342;2024-01-27T07:22:32;101878.20;;;0.90;30.48
63339;BME280;70568;51.378;-1.342;2024-01-27T07:24:59;101872.14;;;2.38;30.36
63339;BME280;70568;51.378;-1.342;2024-01-27T07:27:25;101872.61;;;1.57;30.44
63339;BME280;70568;51.378;-1.342;2024-01-27T07:29:52;101884.76;;;1.70;30.14
63339;BME280;70568;51.378;-1.342;2024-01-27T07:32:19;101885.06;;;1.65;29.87
63339;BME280;70568;51.378;-1.342;2024-01-27T07:34:46;101878.82;;;1.13;30.13
63339;BME280;70568;51.378;-1.342;2024-01-27T07:37:12;101877.59;;;2.54;29.90
63339;BME280;70568;51.378;-1.342;2024-01-27T07:39:40;101879.25;;;3.23;28.60
63339;BME280;70568;51.378;-1.342;2024-01-27T07:42:06;101878.90;;;2.64;29.76
63339;BME280;70568;51.378;-1.342;2024-01-27T07:44:33;101873.76;;;1.82;30.31
63339;BME280;70568;51.378;-1.342;2024-01-27T07:47:00;101873.94;;;1.93;29.39
63339;BME280;70568;51.378;-1.342;2024-01-27T07:49:27;101878.29;;;2.69;29.51
63339;BME280;70568;51.378;-1.342;2024-01-27T07:51:53;101875.50;;;2.53;29.82
63339;BME280;70568;51.378;-1.342;2024-01-27T07:54:21;101867.41;;;1.12;29.88
63339;BME280;70568;51.378;-1.342;2024-01-27T07:56:47;101870.26;;;1.68;29.93
63339;BME280;70568;51.378;-1.342;2024-01-27T07:59:14;101876.95;;;1.98;29.92
63339;BME280;70568;51.378;-1.342;2024-01-27T08:01:41;101872.87;;;0.40;29.92
63339;BME280;70568;51.378;-1.342;2024-01-27T08:04:07;101865.06;;;0.73;29.88
63339;BME280;70568;51.378;-1.342;2024-01-27T08:06:34;101866.60;;;0.75;30.01
63339;BME280;70568;51.378;-1.342;2024-01-27T08:09:00;101865.40;;;2.40;29.60
63339;BME280;70568;51.378;-1.342;2024-01-27T08:11:27;101866.38;;;3.28;29.21
63339;BME280;70568;51.378;-1.342;2024-01-27T08:13:54;101869.72;;;2.46;29.09
63339;BME280;70568;51.378;-1.342;2024-01-27T08:16:20;101879.39;;;1.67;30.05
63339;BME280;70568;51.378;-1.342;2024-01-27T08:18:47;101885.66;;;0.36;30.36
63339;BME280;70568;51.378;-1.342;2024-01-27T08:21:14;101890.52;;;1.26;30.25
63339;BME280;70568;51.378;-1.342;2024-01-27T08:23:41;101892.40;;;2.14;30.38
63339;BME280;70568;51.378;-1.342;2024-01-27T08:26:08;101889.80;;;1.38;30.42
63339;BME280;70568;51.378;-1.342;2024-01-27T08:28:35;101889.51;;;0.91;30.38
63339;BME280;70568;51.378;-1.342;2024-01-27T08:31:02;101887.12;;;1.57;30.50
63339;BME280;70568;51.378;-1.342;2024-01-27T08:33:29;101885.82;;;2.57;30.11
63339;BME280;70568;51.378;-1.342;2024-01-27T08:35:57;101890.11;;;2.19;29.55
63339;BME280;70568;51.378;-1.342;2024-01-27T08:38:23;101894.03;;;3.89;29.41
63339;BME280;70568;51.378;-1.342;2024-01-27T08:40:50;101893.59;;;1.53;30.11
63339;BME280;70568;51.378;-1.342;2024-01-27T08:43:17;101891.33;;;1.77;30.00
63339;BME280;70568;51.378;-1.342;2024-01-27T08:45:44;101886.67;;;3.70;28.96
63339;BME280;70568;51.378;-1.342;2024-01-27T08:48:11;101889.86;;;3.26;29.51
63339;BME280;70568;51.378;-1.342;2024-01-27T08:50:38;101892.95;;;3.08;29.88
63339;BME280;70568;51.378;-1.342;2024-01-27T08:53:05;101897.66;;;1.82;29.74
63339;BME280;70568;51.378;-1.342;2024-01-27T08:55:31;101890.44;;;2.07;29.96
63339;BME280;70568;51.378;-1.342;2024-01-27T08:57:59;101890.66;;;2.69;29.99
63339;BME280;70568;51.378;-1.342;2024-01-27T09:00:26;101895.14;;;2.86;29.97
63339;BME280;70568;51.378;-1.342;2024-01-27T09:02:53;101902.00;;;3.01;29.93
63339;BME280;70568;51.378;-1.342;2024-01-27T09:05:20;101898.71;;;2.14;29.74
63339;BME280;70568;51.378;-1.342;2024-01-27T09:07:47;101898.77;;;3.60;29.91
63339;BME280;70568;51.378;-1.342;2024-01-27T09:10:13;101897.52;;;3.09;29.62
63339;BME280;70568;51.378;-1.342;2024-01-27T09:12:40;101896.59;;;3.72;29.63
63339;BME280;70568;51.378;-1.342;2024-01-27T09:15:07;101895.28;;;1.67;29.69
63339;BME280;70568;51.378;-1.342;2024-01-27T09:17:34;101897.00;;;4.03;29.51
63339;BME280;70568;51.378;-1.342;2024-01-27T09:20:00;101897.60;;;2.86;29.68
63339;BME280;70568;51.378;-1.342;2024-01-27T09:22:27;101895.54;;;3.32;29.75
63339;BME280;70568;51.378;-1.342;2024-01-27T09:24:53;101895.55;;;4.08;29.61
63339;BME280;70568;51.378;-1.342;2024-01-27T09:27:20;101894.73;;;2.48;30.06
63339;BME280;70568;51.378;-1.342;2024-01-27T09:29:46;101898.70;;;2.47;29.79
63339;BME280;70568;51.378;-1.342;2024-01-27T09:32:13;101894.66;;;3.21;30.09
63339;BME280;70568;51.378;-1.342;2024-01-27T09:34:40;101897.34;;;3.42;29.96
63339;BME280;70568;51.378;-1.342;2024-01-27T09:37:07;101898.25;;;2.93;30.04
63339;BME280;70568;51.378;-1.342;2024-01-27T09:39:33;101905.13;;;2.96;30.08
63339;BME280;70568;51.378;-1.342;2024-01-27T09:42:04;101904.87;;;3.52;30.00
63339;BME280;70568;51.378;-1.342;2024-01-27T09:44:33;101903.39;;;2.24;30.32
63339;BME280;70568;51.378;-1.342;2024-01-27T09:47:01;101905.01;;;3.83;29.98
63339;BME280;70568;51.378;-1.342;2024-01-27T09:49:30;101908.72;;;2.92;30.29
63339;BME280;70568;51.378;-1.342;2024-01-27T09:51:59;101905.47;;;2.85;30.14
63339;BME280;70568;51.378;-1.342;2024-01-27T09:54:25;101896.08;;;3.37;29.78
63339;BME280;70568;51.378;-1.342;2024-01-27T09:56:52;101900.69;;;4.35;29.89
63339;BME280;70568;51.378;-1.342;2024-01-27T09:59:19;101902.27;;;3.79;30.02
63339;BME280;70568;51.378;-1.342;2024-01-27T10:01:47;101904.02;;;4.97;29.56
63339;BME280;70568;51.378;-1.342;2024-01-27T10:04:15;101908.68;;;5.81;29.31
63339;BME280;70568;51.378;-1.342;2024-01-27T10:06:42;101910.60;;;4.78;29.51
63339;BME280;70568;51.378;-1.342;2024-01-27T10:09:08;101915.62;;;4.83;30.18
63339;BME280;70568;51.378;-1.342;2024-01-27T10:11:36;101919.91;;;3.67;30.30
63339;BME280;70568;51.378;-1.342;2024-01-27T10:14:05;101926.58;;;3.14;30.57
63339;BME280;70568;51.378;-1.342;2024-01-27T10:16:40;101932.12;;;3.03;30.65
63339;BME280;70568;51.378;-1.342;2024-01-27T10:19:08;101935.32;;;5.19;29.95
63339;BME280;70568;51.378;-1.342;2024-01-27T10:21:38;101940.64;;;4.62;29.59
63339;BME280;70568;51.378;-1.342;2024-01-27T10:24:05;101947.28;;;4.45;30.30
63339;BME280;70568;51.378;-1.342;2024-01-27T10:26:32;101948.63;;;4.49;29.88
63339;BME280;70568;51.378;-1.342;2024-01-27T10:28:59;101948.18;;;3.84;30.11
63339;BME280;70568;51.378;-1.342;2024-01-27T10:31:27;101948.53;;;6.16;29.44
63339;BME280;70568;51.378;-1.342;2024-01-27T10:33:55;101943.76;;;5.70;28.92
63339;BME280;70568;51.378;-1.342;2024-01-27T10:36:22;101942.57;;;4.69;29.59
63339;BME280;70568;51.378;-1.342;2024-01-27T10:38:48;101938.03;;;4.55;29.69
63339;BME280;70568;51.378;-1.342;2024-01-27T10:41:21;101933.08;;;4.97;30.26
63339;BME280;70568;51.378;-1.342;2024-01-27T10:43:50;101925.96;;;3.54;30.79
63339;BME280;70568;51.378;-1.342;2024-01-27T10:46:19;101924.47;;;5.09;30.42
63339;BME280;70568;51.378;-1.342;2024-01-27T10:48:49;101912.60;;;4.24;30.51
63339;BME280;70568;51.378;-1.342;2024-01-27T10:51:24;101903.83;;;4.04;31.14
63339;BME280;70568;51.378;-1.342;2024-01-27T10:54:02;101902.13;;;4.58;30.77
63339;BME280;70568;51.378;-1.342;2024-01-27T10:56:31;101911.10;;;5.77;30.42
63339;BME280;70568;51.378;-1.342;2024-01-27T10:58:59;101911.41;;;5.50;30.74
63339;BME280;70568;51.378;-1.342;2024-01-27T11:01:26;101907.54;;;5.25;31.05
63339;BME280;70568;51.378;-1.342;2024-01-27T11:03:55;101906.08;;;4.12;32.12
63339;BME280;70568;51.378;-1.342;2024-01-27T11:06:22;101902.78;;;4.92;32.56
63339;BME280;70568;51.378;-1.342;2024-01-27T11:08:49;101899.81;;;1.64;33.48
63339;BME280;70568;51.378;-1.342;2024-01-27T11:11:16;101901.80;;;4.52;32.76
63339;BME280;70568;51.378;-1.342;2024-01-27T11:13:43;101899.86;;;5.80;32.94
63339;BME280;70568;51.378;-1.342;2024-01-27T11:16:15;101895.06;;;5.04;33.38
63339;BME280;70568;51.378;-1.342;2024-01-27T11:18:42;101888.95;;;4.98;33.23
63339;BME280;70568;51.378;-1.342;2024-01-27T11:21:13;101881.21;;;4.08;33.38
63339;BME280;70568;51.378;-1.342;2024-01-27T11:23:40;101881.29;;;4.34;34.91
63339;BME280;70568;51.378;-1.342;2024-01-27T11:26:09;101878.82;;;3.83;35.73
63339;BME280;70568;51.378;-1.342;2024-01-27T11:28:37;101881.46;;;3.36;37.21
63339;BME280;70568;51.378;-1.342;2024-01-27T11:31:04;101876.73;;;3.94;37.11
63339;BME280;70568;51.378;-1.342;2024-01-27T11:33:31;101872.99;;;5.49;36.22
63339;BME280;70568;51.378;-1.342;2024-01-27T11:36:01;101870.46;;;4.67;36.31
63339;BME280;70568;51.378;-1.342;2024-01-27T11:38:30;101865.69;;;5.79;37.01
63339;BME280;70568;51.378;-1.342;2024-01-27T11:40:59;101869.89;;;4.12;38.39
63339;BME280;70568;51.378;-1.342;2024-01-27T11:43:26;101871.56;;;4.34;38.41
63339;BME280;70568;51.378;-1.342;2024-01-27T11:45:55;101868.43;;;2.32;38.77
63339;BME280;70568;51.378;-1.342;2024-01-27T11:48:24;101869.96;;;3.73;38.11
63339;BME280;70568;51.378;-1.342;2024-01-27T11:51:03;101868.83;;;4.55;39.48
63339;BME280;70568;51.378;-1.342;2024-01-27T11:53:30;101874.83;;;2.56;42.76
63339;BME280;70568;51.378;-1.342;2024-01-27T11:55:58;101879.22;;;2.62;42.12
63339;BME280;70568;51.378;-1.342;2024-01-27T11:58:24;101875.79;;;2.31;41.36
63339;BME280;70568;51.378;-1.342;2024-01-27T12:00:52;101860.66;;;2.94;40.55
63339;BME280;70568;51.378;-1.342;2024-01-27T12:03:18;101861.99;;;3.07;41.07
63339;BME280;70568;51.378;-1.342;2024-01-27T12:05:45;101850.26;;;3.68;40.44
63339;BME280;70568;51.378;-1.342;2024-01-27T12:08:12;101843.26;;;3.97;39.61
63339;BME280;70568;51.378;-1.342;2024-01-27T12:10:39;101834.89;;;3.88;39.17
63339;BME280;70568;51.378;-1.342;2024-01-27T12:13:05;101836.08;;;3.42;39.65
63339;BME280;70568;51.378;-1.342;2024-01-27T12:15:32;101825.94;;;2.98;40.57
63339;BME280;70568;51.378;-1.342;2024-01-27T12:17:59;101829.81;;;3.06;40.15
63339;BME280;70568;51.378;-1.342;2024-01-27T12:20:26;101826.67;;;4.16;40.41
63339;BME280;70568;51.378;-1.342;2024-01-27T12:23:02;101825.78;;;4.41;38.64
63339;BME280;70568;51.378;-1.342;2024-01-27T12:25:29;101822.10;;;4.15;39.03
63339;BME280;70568;51.378;-1.342;2024-01-27T12:27:57;101823.42;;;5.29;37.90
63339;BME280;70568;51.378;-1.342;2024-01-27T12:30:28;101821.51;;;2.49;38.84
63339;BME280;70568;51.378;-1.342;2024-01-27T12:32:55;101820.37;;;3.38;38.12
63339;BME280;70568;51.378;-1.342;2024-01-27T12:35:23;101819.55;;;6.33;36.36
63339;BME280;70568;51.378;-1.342;2024-01-27T12:37:50;101822.27;;;4.42;36.89
63339;BME280;70568;51.378;-1.342;2024-01-27T12:40:18;101821.20;;;4.48;39.07
63339;BME280;70568;51.378;-1.342;2024-01-27T12:42:46;101820.18;;;3.81;39.48
63339;BME280;70568;51.378;-1.342;2024-01-27T12:45:13;101816.96;;;4.32;38.69
63339;BME280;70568;51.378;-1.342;2024-01-27T12:47:40;101806.08;;;2.99;39.82
63339;BME280;70568;51.378;-1.342;2024-01-27T12:50:08;101802.02;;;4.07;37.07